createdAt,value
2022-10-26T00:00:31.940Z,9.745495
2022-10-26T00:01:31.975Z,9.745455
2022-10-26T00:02:31.933Z,9.745580
2022-10-26T00:03:31.893Z,9.745532
2022-10-26T00:04:31.884Z,9.745723
2022-10-26T00:05:31.906Z,9.745670
2022-10-26T00:06:31.869Z,9.745810
2022-10-26T00:07:31.922Z,9.745660
2022-10-26T00:08:31.861Z,9.745765
2022-10-26T00:09:31.860Z,9.745592
2022-10-26T00:10:31.992Z,9.745879
2022-10-26T00:11:31.838Z,9.745985
2022-10-26T00:12:31.832Z,9.745820
2022-10-26T00:13:31.822Z,9.745079
2022-10-26T00:14:31.810Z,9.745030
2022-10-26T00:15:31.830Z,9.745510
2022-10-26T00:16:31.797Z,9.745670
2022-10-26T00:17:31.792Z,9.745724
2022-10-26T00:18:31.778Z,9.745724
2022-10-26T00:19:31.773Z,9.745724
2022-10-26T00:20:31.779Z,9.745624
2022-10-26T00:21:32.756Z,9.745789
2022-10-26T00:22:31.752Z,9.745715
2022-10-26T00:23:31.746Z,9.745912
2022-10-26T00:24:31.735Z,9.745766
2022-10-26T00:25:31.753Z,9.745515
2022-10-26T00:26:31.721Z,9.745624
2022-10-26T00:27:31.710Z,9.745782
2022-10-26T00:28:31.701Z,9.745718
2022-10-26T00:29:31.696Z,9.745260
2022-10-26T00:30:31.710Z,9.745504
2022-10-26T00:31:31.678Z,9.745450
2022-10-26T00:32:31.748Z,9.745772
2022-10-26T00:33:31.667Z,9.746080
2022-10-26T00:34:31.658Z,9.745670
2022-10-26T00:35:45.094Z,9.745765
2022-10-26T00:36:33.640Z,9.745710
2022-10-26T00:37:31.638Z,9.745374
2022-10-26T00:38:31.637Z,9.745953
2022-10-26T00:39:31.621Z,9.745160
2022-10-26T00:40:31.638Z,9.745542
2022-10-26T00:41:31.612Z,9.745549
2022-10-26T00:42:31.595Z,9.745552
2022-10-26T00:43:31.593Z,9.745654
2022-10-26T00:44:36.050Z,9.745515
2022-10-26T00:45:33.602Z,9.746115
2022-10-26T00:46:31.570Z,9.745808
2022-10-26T00:47:31.561Z,9.745548
2022-10-26T00:48:31.560Z,9.745330
2022-10-26T00:49:31.549Z,9.745548
2022-10-26T00:50:31.567Z,9.745548
2022-10-26T00:51:31.529Z,9.745479
2022-10-26T00:52:31.529Z,9.745553
2022-10-26T00:53:31.519Z,9.745641
2022-10-26T00:54:31.515Z,9.745745
2022-10-26T00:55:31.533Z,9.745572
2022-10-26T00:56:31.500Z,9.745573
2022-10-26T00:57:31.507Z,9.745610
2022-10-26T00:58:31.482Z,9.745456
2022-10-26T00:59:31.474Z,9.745375
2022-10-26T01:00:31.491Z,9.745611
2022-10-26T01:01:31.567Z,9.745619
2022-10-26T01:02:31.447Z,9.745628
2022-10-26T01:03:31.464Z,9.745826
2022-10-26T01:04:31.432Z,9.745657
2022-10-26T01:05:31.445Z,9.745350
2022-10-26T01:06:31.422Z,9.745409
2022-10-26T01:07:31.410Z,9.745384
2022-10-26T01:08:31.391Z,9.745400
2022-10-26T01:09:31.392Z,9.745276
2022-10-26T01:10:31.411Z,9.745496
2022-10-26T01:11:31.370Z,9.745440
2022-10-26T01:12:31.375Z,9.745526
2022-10-26T01:13:31.360Z,9.745692
2022-10-26T01:14:31.352Z,9.745535
2022-10-26T01:15:31.338Z,9.745543
2022-10-26T01:16:31.361Z,9.745392
2022-10-26T01:17:31.320Z,9.745425
2022-10-26T01:18:31.311Z,9.745470
2022-10-26T01:19:31.310Z,9.745337
2022-10-26T01:20:31.301Z,9.745275
2022-10-26T01:21:31.316Z,9.745473
2022-10-26T01:22:31.288Z,9.745242
2022-10-26T01:23:31.274Z,9.745360
2022-10-26T01:24:31.276Z,9.745224
2022-10-26T01:25:31.266Z,9.745726
2022-10-26T01:26:31.279Z,9.745774
2022-10-26T01:27:31.247Z,9.745800
2022-10-26T01:28:31.242Z,9.745699
2022-10-26T01:29:31.236Z,9.745873
2022-10-26T01:30:31.224Z,9.745648
2022-10-26T01:31:31.239Z,9.745513
2022-10-26T01:32:31.210Z,9.745583
2022-10-26T01:33:31.207Z,9.745518
2022-10-26T01:34:31.197Z,9.745414
2022-10-26T01:35:31.192Z,9.745281
2022-10-26T01:37:31.176Z,9.745509
2022-10-26T01:38:31.163Z,9.745382
2022-10-26T01:39:31.157Z,9.745342
2022-10-26T01:40:31.150Z,9.745315
2022-10-26T01:41:31.168Z,9.745108
2022-10-26T01:42:31.131Z,9.745187
2022-10-26T01:43:31.126Z,9.745301
2022-10-26T01:44:31.117Z,9.745863
2022-10-26T01:45:31.110Z,9.745917
2022-10-26T01:46:31.128Z,9.745415
2022-10-26T01:47:31.094Z,9.745245
2022-10-26T01:48:31.080Z,9.745664
2022-10-26T01:49:31.076Z,9.745707
2022-10-26T01:50:31.068Z,9.745877
2022-10-26T01:51:31.087Z,9.745588
2022-10-26T01:52:31.049Z,9.745365
2022-10-26T01:53:32.045Z,9.745415
2022-10-26T01:54:31.081Z,9.745451
2022-10-26T01:55:31.034Z,9.745554
2022-10-26T01:56:31.048Z,9.745350
2022-10-26T01:57:31.019Z,9.745044
2022-10-26T01:58:31.010Z,9.745370
2022-10-26T01:59:30.997Z,9.745318
2022-10-26T02:00:31.005Z,9.745346
2022-10-26T02:01:31.073Z,9.745498
2022-10-26T02:02:30.985Z,9.745316
2022-10-26T02:03:31.008Z,9.745268
2022-10-26T02:04:30.972Z,9.745486
2022-10-26T02:05:30.954Z,9.745481
2022-10-26T02:06:30.973Z,9.745500
2022-10-26T02:07:30.942Z,9.745416
2022-10-26T02:08:30.930Z,9.745486
2022-10-26T02:09:30.926Z,9.745422
2022-10-26T02:10:30.917Z,9.745343
2022-10-26T02:11:30.940Z,9.745410
2022-10-26T02:12:30.901Z,9.745445
2022-10-26T02:13:30.894Z,9.745512
2022-10-26T02:14:30.885Z,9.745461
2022-10-26T02:15:30.878Z,9.745354
2022-10-26T02:16:30.898Z,9.745417
2022-10-26T02:17:30.872Z,9.745433
2022-10-26T02:18:30.856Z,9.745350
2022-10-26T02:19:30.843Z,9.745587
2022-10-26T02:20:30.834Z,9.745440
2022-10-26T02:21:30.829Z,9.745371
2022-10-26T02:22:30.844Z,9.745318
2022-10-26T02:23:30.814Z,9.745438
2022-10-26T02:24:30.802Z,9.745470
2022-10-26T02:25:30.801Z,9.745461
2022-10-26T02:26:30.794Z,9.745391
2022-10-26T02:27:30.808Z,9.745404
2022-10-26T02:28:30.772Z,9.745476
2022-10-26T02:29:30.771Z,9.745378
2022-10-26T02:30:30.753Z,9.745471
2022-10-26T02:31:31.753Z,9.745551
2022-10-26T02:32:30.771Z,9.745572
2022-10-26T02:33:30.732Z,9.745576
2022-10-26T02:34:30.727Z,9.745476
2022-10-26T02:35:30.720Z,9.745390
2022-10-26T02:36:30.715Z,9.745435
2022-10-26T02:37:30.733Z,9.745510
2022-10-26T02:38:30.701Z,9.745535
2022-10-26T02:39:30.690Z,9.745654
2022-10-26T02:40:30.677Z,9.745550
2022-10-26T02:41:30.671Z,9.745432
2022-10-26T02:42:30.686Z,9.745470
2022-10-26T02:44:30.649Z,9.745255
2022-10-26T02:45:30.640Z,9.745427
2022-10-26T02:46:30.637Z,9.745463
2022-10-26T02:47:30.650Z,9.745421
2022-10-26T02:48:30.620Z,9.745322
2022-10-26T02:49:30.611Z,9.745350
2022-10-26T02:50:30.604Z,9.745443
2022-10-26T02:51:30.594Z,9.745364
2022-10-26T02:52:30.613Z,9.745426
2022-10-26T02:53:30.584Z,9.745471
2022-10-26T02:54:30.568Z,9.745396
2022-10-26T02:55:30.569Z,9.745421
2022-10-26T02:56:30.562Z,9.745269
2022-10-26T02:57:30.581Z,9.745424
2022-10-26T02:58:30.546Z,9.745594
2022-10-26T02:59:30.537Z,9.745620
2022-10-26T03:00:30.529Z,9.745479
2022-10-26T03:01:30.586Z,9.745420
2022-10-26T03:02:30.538Z,9.745200
2022-10-26T03:03:30.504Z,9.745140
2022-10-26T03:04:30.497Z,9.745712
2022-10-26T03:05:30.493Z,9.745530
2022-10-26T03:06:30.485Z,9.745558
2022-10-26T03:07:30.514Z,9.745639
2022-10-26T03:08:30.613Z,9.745636
2022-10-26T03:09:30.462Z,9.745440
2022-10-26T03:10:30.455Z,9.745419
2022-10-26T03:11:30.446Z,9.745424
2022-10-26T03:12:30.440Z,9.745508
2022-10-26T03:13:30.459Z,9.745468
2022-10-26T03:14:30.442Z,9.745465
2022-10-26T03:15:30.431Z,9.745447
2022-10-26T03:16:30.440Z,9.745408
2022-10-26T03:17:30.439Z,9.745427
2022-10-26T03:18:30.443Z,9.745408
2022-10-26T03:19:30.387Z,9.745764
2022-10-26T03:20:30.374Z,9.745628
2022-10-26T03:21:30.368Z,9.745660
2022-10-26T03:22:30.364Z,9.745564
2022-10-26T03:23:30.381Z,9.745632
2022-10-26T03:24:30.347Z,9.745453
2022-10-26T03:25:30.341Z,9.745502
2022-10-26T03:26:30.333Z,9.745477
2022-10-26T03:27:30.327Z,9.745466
2022-10-26T03:28:30.348Z,9.745483
2022-10-26T03:29:30.312Z,9.745421
2022-10-26T03:30:30.303Z,9.745385
2022-10-26T03:31:30.294Z,9.745289
2022-10-26T03:32:30.289Z,9.745309
2022-10-26T03:33:30.357Z,9.745473
2022-10-26T03:34:30.269Z,9.745390
2022-10-26T03:35:30.269Z,9.745425
2022-10-26T03:36:30.262Z,9.745533
2022-10-26T03:37:30.248Z,9.745260
2022-10-26T03:38:30.275Z,9.745673
2022-10-26T03:39:30.237Z,9.745536
2022-10-26T03:40:30.233Z,9.745463
2022-10-26T03:41:30.229Z,9.745582
2022-10-26T03:42:30.214Z,9.745433
2022-10-26T03:43:30.237Z,9.745397
2022-10-26T03:44:30.200Z,9.745310
2022-10-26T03:45:30.204Z,9.745632
2022-10-26T03:46:30.177Z,9.745759
2022-10-26T03:47:30.180Z,9.745521
2022-10-26T03:48:30.192Z,9.745569
2022-10-26T03:49:30.163Z,9.745561
2022-10-26T03:50:30.156Z,9.745502
2022-10-26T03:51:30.145Z,9.745578
2022-10-26T03:52:30.141Z,9.745520
2022-10-26T03:53:30.149Z,9.745365
2022-10-26T03:54:30.148Z,9.745525
2022-10-26T03:55:30.123Z,9.745631
2022-10-26T03:56:30.109Z,9.745572
2022-10-26T03:57:30.099Z,9.745603
2022-10-26T03:58:30.105Z,9.745549
2022-10-26T03:59:30.116Z,9.745385
2022-10-26T04:00:30.080Z,9.745218
2022-10-26T04:01:30.123Z,9.745367
2022-10-26T04:02:30.069Z,9.745416
2022-10-26T04:03:30.057Z,9.745338
2022-10-26T04:04:30.144Z,9.745337
2022-10-26T04:05:30.044Z,9.745487
2022-10-26T04:06:30.044Z,9.745484
2022-10-26T04:07:30.028Z,9.745435
2022-10-26T04:08:30.030Z,9.745442
2022-10-26T04:09:30.049Z,9.745465
2022-10-26T04:10:30.009Z,9.745398
2022-10-26T04:11:30.002Z,9.745338
2022-10-26T04:12:29.997Z,9.745341
2022-10-26T04:13:29.984Z,9.745563
2022-10-26T04:14:30.003Z,9.745560
2022-10-26T04:15:29.968Z,9.745459
2022-10-26T04:16:32.705Z,9.745509
2022-10-26T04:17:29.951Z,9.745460
2022-10-26T04:18:29.948Z,9.745363
2022-10-26T04:19:29.960Z,9.745358
2022-10-26T04:20:29.929Z,9.745466
2022-10-26T04:21:29.928Z,9.745372
2022-10-26T04:22:29.917Z,9.745464
2022-10-26T04:23:29.925Z,9.745584
2022-10-26T04:24:29.925Z,9.745655
2022-10-26T04:25:32.696Z,9.745662
2022-10-26T04:26:29.881Z,9.745765
2022-10-26T04:27:29.881Z,9.745463
2022-10-26T04:28:29.872Z,9.745615
2022-10-26T04:29:29.886Z,9.745578
2022-10-26T04:30:29.853Z,9.745549
2022-10-26T04:31:29.876Z,9.745493
2022-10-26T04:32:29.835Z,9.745558
2022-10-26T04:33:29.831Z,9.745745
2022-10-26T04:34:29.847Z,9.745598
2022-10-26T04:35:29.819Z,9.745636
2022-10-26T04:36:29.806Z,9.745942
2022-10-26T04:37:29.797Z,9.745692
2022-10-26T04:38:29.790Z,9.745678
2022-10-26T04:39:29.802Z,9.745680
2022-10-26T04:40:29.775Z,9.745663
2022-10-26T04:41:29.767Z,9.745641
2022-10-26T04:42:29.760Z,9.745513
2022-10-26T04:43:29.754Z,9.745543
2022-10-26T04:44:29.763Z,9.745647
2022-10-26T04:45:29.729Z,9.745647
2022-10-26T04:46:29.727Z,9.745643
2022-10-26T04:47:29.712Z,9.745442
2022-10-26T04:48:29.716Z,9.745554
2022-10-26T04:49:29.720Z,9.745586
2022-10-26T04:50:29.691Z,9.745658
2022-10-26T04:51:29.688Z,9.745592
2022-10-26T04:52:29.673Z,9.745470
2022-10-26T04:53:29.669Z,9.745554
2022-10-26T04:54:29.676Z,9.745625
2022-10-26T04:55:29.652Z,9.745582
2022-10-26T04:56:29.644Z,9.745525
2022-10-26T04:57:29.633Z,9.745525
2022-10-26T04:58:29.622Z,9.745358
2022-10-26T04:59:29.642Z,9.745463
2022-10-26T05:00:29.619Z,9.745547
2022-10-26T05:01:29.705Z,9.745310
2022-10-26T05:02:29.799Z,9.745263
2022-10-26T05:03:30.257Z,9.745439
2022-10-26T05:04:29.605Z,9.745795
2022-10-26T05:05:29.578Z,9.745756
2022-10-26T05:06:29.567Z,9.745715
2022-10-26T05:07:29.567Z,9.745624
2022-10-26T05:08:29.550Z,9.745423
2022-10-26T05:09:29.566Z,9.745297
2022-10-26T05:10:29.533Z,9.745467
2022-10-26T05:11:29.530Z,9.745483
2022-10-26T05:12:29.519Z,9.745564
2022-10-26T05:13:29.514Z,9.745487
2022-10-26T05:14:29.514Z,9.745359
2022-10-26T05:15:30.494Z,9.745056
2022-10-26T05:16:29.488Z,9.745558
2022-10-26T05:17:29.482Z,9.745427
2022-10-26T05:18:29.474Z,9.745628
2022-10-26T05:19:29.488Z,9.745486
2022-10-26T05:20:29.458Z,9.743753
2022-10-26T05:21:29.448Z,9.745334
2022-10-26T05:22:29.440Z,9.745440
2022-10-26T05:23:29.432Z,9.745379
2022-10-26T05:24:29.451Z,9.745527
2022-10-26T05:25:29.415Z,9.745667
2022-10-26T05:26:29.412Z,9.745412
2022-10-26T05:27:29.408Z,9.745691
2022-10-26T05:28:29.391Z,9.745426
2022-10-26T05:29:29.411Z,9.745473
2022-10-26T05:30:29.378Z,9.745515
2022-10-26T05:31:29.374Z,9.745609
2022-10-26T05:32:29.365Z,9.745684
2022-10-26T05:33:29.358Z,9.745760
2022-10-26T05:34:29.375Z,9.745805
2022-10-26T05:35:29.341Z,9.745663
2022-10-26T05:36:29.330Z,9.745969
2022-10-26T05:37:29.325Z,9.745650
2022-10-26T05:38:29.319Z,9.745813
2022-10-26T05:39:29.338Z,9.745688
2022-10-26T05:40:29.304Z,9.745682
2022-10-26T05:41:29.301Z,9.745560
2022-10-26T05:42:29.287Z,9.745242
2022-10-26T05:43:29.279Z,9.745336
2022-10-26T05:44:29.293Z,9.745448
2022-10-26T05:45:29.267Z,9.745437
2022-10-26T05:46:29.255Z,9.745549
2022-10-26T05:47:29.245Z,9.745437
2022-10-26T05:48:30.247Z,9.745620
2022-10-26T05:49:29.257Z,9.745772
2022-10-26T05:50:29.226Z,9.745081
2022-10-26T05:51:29.212Z,9.745407
2022-10-26T05:52:29.205Z,9.745453
2022-10-26T05:53:29.199Z,9.745522
2022-10-26T05:54:29.217Z,9.745243
2022-10-26T05:55:29.185Z,9.745498
2022-10-26T05:56:29.172Z,9.745775
2022-10-26T05:57:29.167Z,9.745332
2022-10-26T05:58:29.157Z,9.745262
2022-10-26T05:59:29.180Z,9.744783
2022-10-26T06:00:29.182Z,9.744580
2022-10-26T06:01:29.253Z,9.744435
2022-10-26T06:02:29.189Z,9.744664
2022-10-26T06:03:32.134Z,9.745348
2022-10-26T06:04:29.141Z,9.745597
2022-10-26T06:05:29.128Z,9.745666
2022-10-26T06:06:29.096Z,9.745669
2022-10-26T06:07:29.089Z,9.745417
2022-10-26T06:08:29.084Z,9.745513
2022-10-26T06:09:29.108Z,9.745650
2022-10-26T06:10:29.066Z,9.745427
2022-10-26T06:11:29.059Z,9.745730
2022-10-26T06:12:29.051Z,9.745549
2022-10-26T06:13:29.047Z,9.745141
2022-10-26T06:14:29.062Z,9.745141
2022-10-26T06:15:29.026Z,9.745353
2022-10-26T06:16:29.020Z,9.745465
2022-10-26T06:17:29.013Z,9.746168
2022-10-26T06:18:29.004Z,9.746168
2022-10-26T06:19:29.003Z,9.744926
2022-10-26T06:20:29.023Z,9.744470
2022-10-26T06:21:28.981Z,9.744470
2022-10-26T06:22:28.965Z,9.745736
2022-10-26T06:23:29.974Z,9.745736
2022-10-26T06:24:28.965Z,9.745502
2022-10-26T06:25:28.974Z,9.745491
2022-10-26T06:26:28.944Z,9.745491
2022-10-26T06:27:28.939Z,9.745417
2022-10-26T06:28:28.977Z,9.745465
2022-10-26T06:29:28.917Z,9.745411
2022-10-26T06:30:28.938Z,9.745506
2022-10-26T06:31:28.900Z,9.746069
2022-10-26T06:32:28.902Z,9.745513
2022-10-26T06:33:30.290Z,9.745417
2022-10-26T06:34:29.879Z,9.745437
2022-10-26T06:35:28.896Z,9.745523
2022-10-26T06:36:28.863Z,9.745568
2022-10-26T06:37:28.853Z,9.745593
2022-10-26T06:38:28.844Z,9.745663
2022-10-26T06:39:28.835Z,9.745576
2022-10-26T06:40:28.854Z,9.745699
2022-10-26T06:41:28.818Z,9.745385
2022-10-26T06:42:28.812Z,9.745449
2022-10-26T06:43:28.804Z,9.745433
2022-10-26T06:44:28.796Z,9.745527
2022-10-26T06:45:28.817Z,9.745581
2022-10-26T06:46:28.779Z,9.745322
2022-10-26T06:47:28.775Z,9.745390
2022-10-26T06:48:28.770Z,9.745422
2022-10-26T06:49:28.785Z,9.745317
2022-10-26T06:50:28.751Z,9.745213
2022-10-26T06:51:28.746Z,9.745929
2022-10-26T06:52:28.733Z,9.745744
2022-10-26T06:53:28.832Z,9.745491
2022-10-26T06:54:28.746Z,9.745645
2022-10-26T06:55:29.709Z,9.745562
2022-10-26T06:56:28.703Z,9.745330
2022-10-26T06:57:28.697Z,9.745336
2022-10-26T06:58:28.689Z,9.745236
2022-10-26T06:59:28.712Z,9.745314
2022-10-26T07:00:28.712Z,9.745667
2022-10-26T07:01:28.773Z,9.745640
2022-10-26T07:02:28.752Z,9.745417
2022-10-26T07:03:28.665Z,9.745204
2022-10-26T07:04:28.668Z,9.745087
2022-10-26T07:05:28.631Z,9.744973
2022-10-26T07:06:28.624Z,9.745114
2022-10-26T07:07:28.614Z,9.745378
2022-10-26T07:08:28.606Z,9.745499
2022-10-26T07:09:28.623Z,9.745532
2022-10-26T07:10:28.594Z,9.745620
2022-10-26T07:11:28.584Z,9.745274
2022-10-26T07:12:32.161Z,9.745396
2022-10-26T07:13:29.568Z,9.745516
2022-10-26T07:14:28.586Z,9.745350
2022-10-26T07:15:28.544Z,9.745458
2022-10-26T07:16:29.541Z,9.745715
2022-10-26T07:17:28.537Z,9.745797
2022-10-26T07:18:28.530Z,9.745376
2022-10-26T07:19:28.551Z,9.745826
2022-10-26T07:20:28.519Z,9.745513
2022-10-26T07:21:28.511Z,9.745268
2022-10-26T07:22:28.501Z,9.745360
2022-10-26T07:24:28.512Z,9.745511
2022-10-26T07:25:28.476Z,9.745617
2022-10-26T07:26:28.466Z,9.745383
2022-10-26T07:27:28.461Z,9.745372
2022-10-26T07:28:28.449Z,9.745255
2022-10-26T07:29:28.467Z,9.745350
2022-10-26T07:30:28.434Z,9.745363
2022-10-26T07:31:28.424Z,9.745193
2022-10-26T07:32:28.421Z,9.745790
2022-10-26T07:33:28.413Z,9.745586
2022-10-26T07:34:28.447Z,9.745501
2022-10-26T07:35:28.399Z,9.745349
2022-10-26T07:36:28.388Z,9.745430
2022-10-26T07:37:28.379Z,9.745374
2022-10-26T07:38:28.388Z,9.745549
2022-10-26T07:39:28.396Z,9.745555
2022-10-26T07:40:28.385Z,9.745531
2022-10-26T07:41:28.343Z,9.745537
2022-10-26T07:42:28.342Z,9.745543
2022-10-26T07:43:28.334Z,9.745439
2022-10-26T07:44:28.325Z,9.745346
2022-10-26T07:45:28.339Z,9.745131
2022-10-26T07:46:28.311Z,9.745394
2022-10-26T07:47:28.307Z,9.745360
2022-10-26T07:48:28.301Z,9.745356
2022-10-26T07:49:28.288Z,9.745375
2022-10-26T07:50:28.303Z,9.745369
2022-10-26T07:51:28.273Z,9.745219
2022-10-26T07:52:28.291Z,9.745173
2022-10-26T07:53:28.253Z,9.745022
2022-10-26T07:54:28.291Z,9.745246
2022-10-26T07:55:28.288Z,9.745286
2022-10-26T07:56:28.219Z,9.745048
2022-10-26T07:57:29.220Z,9.745030
2022-10-26T07:58:28.283Z,9.745317
2022-10-26T07:59:28.205Z,9.745477
2022-10-26T08:00:28.248Z,9.745195
2022-10-26T08:01:28.282Z,9.745549
2022-10-26T08:02:28.180Z,9.745608
2022-10-26T08:03:28.170Z,9.745405
2022-10-26T08:04:28.164Z,9.745420
2022-10-26T08:05:28.202Z,9.745614
2022-10-26T08:06:28.146Z,9.745535
2022-10-26T08:07:28.142Z,9.745531
2022-10-26T08:08:28.145Z,9.745568
2022-10-26T08:09:28.130Z,9.745543
2022-10-26T08:10:28.199Z,9.745502
2022-10-26T08:11:28.116Z,9.745894
2022-10-26T08:12:28.098Z,9.745764
2022-10-26T08:13:28.103Z,9.745594
2022-10-26T08:14:28.084Z,9.745441
2022-10-26T08:15:28.107Z,9.745324
2022-10-26T08:16:28.066Z,9.745136
2022-10-26T08:17:28.060Z,9.745325
2022-10-26T08:18:28.053Z,9.745417
2022-10-26T08:19:28.049Z,9.745459
2022-10-26T08:20:28.036Z,9.745500
2022-10-26T08:21:39.174Z,9.745212
2022-10-26T08:22:30.022Z,9.745379
2022-10-26T08:23:28.011Z,9.745586
2022-10-26T08:24:28.007Z,9.745510
2022-10-26T08:25:28.015Z,9.745449
2022-10-26T08:26:28.981Z,9.745347
2022-10-26T08:27:28.974Z,9.745604
2022-10-26T08:28:28.973Z,9.745766
2022-10-26T08:29:27.983Z,9.745696
2022-10-26T08:30:28.019Z,9.745571
2022-10-26T08:31:27.963Z,9.744751
2022-10-26T08:32:27.944Z,9.745577
2022-10-26T08:33:27.939Z,9.745631
2022-10-26T08:34:27.928Z,9.745537
2022-10-26T08:35:27.944Z,9.745293
2022-10-26T08:36:27.915Z,9.745356
2022-10-26T08:37:27.904Z,9.745136
2022-10-26T08:38:27.906Z,9.745296
2022-10-26T08:39:27.891Z,9.745778
2022-10-26T08:40:27.908Z,9.745859
2022-10-26T08:41:27.881Z,9.745929
2022-10-26T08:42:27.867Z,9.745811
2022-10-26T08:43:27.867Z,9.745755
2022-10-26T08:44:27.851Z,9.745546
2022-10-26T08:45:32.964Z,9.745646
2022-10-26T08:46:29.838Z,9.745288
2022-10-26T08:47:27.828Z,9.745487
2022-10-26T08:48:27.823Z,9.745290
2022-10-26T08:49:27.828Z,9.745413
2022-10-26T08:50:27.808Z,9.745762
2022-10-26T08:51:27.841Z,9.747309
2022-10-26T08:52:27.792Z,9.745525
2022-10-26T08:53:27.783Z,9.745529
2022-10-26T08:54:27.779Z,9.745695
2022-10-26T08:55:27.796Z,9.745646
2022-10-26T08:56:27.788Z,9.744855
2022-10-26T08:57:27.756Z,9.745490
2022-10-26T08:58:27.741Z,9.745419
2022-10-26T08:59:28.746Z,9.745549
2022-10-26T09:00:27.731Z,9.745663
2022-10-26T09:01:27.817Z,9.745452
2022-10-26T09:02:27.716Z,9.745468
2022-10-26T09:03:27.708Z,9.745590
2022-10-26T09:04:27.705Z,9.745329
2022-10-26T09:05:27.697Z,9.745871
2022-10-26T09:06:27.711Z,9.745334
2022-10-26T09:07:27.686Z,9.745389
2022-10-26T09:08:27.676Z,9.744855
2022-10-26T09:09:27.667Z,9.744896
2022-10-26T09:11:27.672Z,9.745342
2022-10-26T09:12:27.642Z,9.745332
2022-10-26T09:13:27.633Z,9.745518
2022-10-26T09:14:27.621Z,9.745692
2022-10-26T09:15:27.618Z,9.745378
2022-10-26T09:16:27.632Z,9.745341
2022-10-26T09:17:27.619Z,9.745416
2022-10-26T09:18:27.602Z,9.745616
2022-10-26T09:19:27.581Z,9.745386
2022-10-26T09:20:27.574Z,9.745266
2022-10-26T09:21:27.595Z,9.745258
2022-10-26T09:22:27.562Z,9.745469
2022-10-26T09:23:27.561Z,9.745065
2022-10-26T09:24:27.548Z,9.745007
2022-10-26T09:25:27.548Z,9.745007
2022-10-26T09:26:27.568Z,9.745007
2022-10-26T09:27:27.522Z,9.745007
2022-10-26T09:28:27.516Z,9.745007
2022-10-26T09:29:27.516Z,9.745857
2022-10-26T09:30:27.503Z,9.745786
2022-10-26T09:31:27.509Z,9.745786
2022-10-26T09:32:27.518Z,9.745786
2022-10-26T09:33:27.482Z,9.745577
2022-10-26T09:34:27.473Z,9.745343
2022-10-26T09:35:27.487Z,9.745317
2022-10-26T09:36:27.482Z,9.745317
2022-10-26T09:37:28.449Z,9.745317
2022-10-26T09:38:27.442Z,9.745317
2022-10-26T09:39:27.433Z,9.745317
2022-10-26T09:40:27.425Z,9.745317
2022-10-26T09:41:29.592Z,9.745317
2022-10-26T09:42:27.410Z,9.745317
2022-10-26T09:43:27.402Z,9.745317
2022-10-26T09:44:27.400Z,9.745317
2022-10-26T09:45:27.392Z,9.745317
2022-10-26T09:46:27.380Z,9.745317
2022-10-26T09:47:27.397Z,9.745899
2022-10-26T09:48:27.365Z,9.745568
2022-10-26T09:49:27.416Z,9.745317
2022-10-26T09:50:27.348Z,9.745770
2022-10-26T09:51:27.392Z,9.745770
2022-10-26T09:52:27.360Z,9.745770
2022-10-26T09:53:27.330Z,9.746131
2022-10-26T09:54:27.319Z,9.746123
2022-10-26T09:55:27.313Z,9.746587
2022-10-26T09:56:27.305Z,9.746167
2022-10-26T09:57:27.326Z,9.746247
2022-10-26T09:58:27.291Z,9.746094
2022-10-26T09:59:27.285Z,9.746506
2022-10-26T10:00:27.315Z,9.746098
2022-10-26T10:01:27.329Z,9.745737
2022-10-26T10:02:27.326Z,9.745837
2022-10-26T10:03:27.254Z,9.745680
2022-10-26T10:04:27.249Z,9.745992
2022-10-26T10:05:49.761Z,9.746141
2022-10-26T10:06:29.224Z,9.745776
2022-10-26T10:07:28.253Z,9.745776
2022-10-26T10:08:27.217Z,9.745639
2022-10-26T10:09:27.207Z,9.745920
2022-10-26T10:10:27.200Z,9.745951
2022-10-26T10:11:27.192Z,9.746406
2022-10-26T10:12:27.221Z,9.745987
2022-10-26T10:13:27.175Z,9.745796
2022-10-26T10:14:27.169Z,9.745906
2022-10-26T10:15:27.160Z,9.746086
2022-10-26T10:16:27.153Z,9.745908
2022-10-26T10:17:27.141Z,9.745669
2022-10-26T10:18:27.162Z,9.745799
2022-10-26T10:19:27.133Z,9.745653
2022-10-26T10:20:27.120Z,9.745922
2022-10-26T10:21:27.110Z,9.746208
2022-10-26T10:22:27.099Z,9.746188
2022-10-26T10:23:27.126Z,9.746054
2022-10-26T10:24:27.087Z,9.745912
2022-10-26T10:25:27.090Z,9.746036
2022-10-26T10:26:27.072Z,9.746337
2022-10-26T10:27:27.068Z,9.745807
2022-10-26T10:28:27.085Z,9.745608
2022-10-26T10:29:27.047Z,9.746178
2022-10-26T10:30:27.040Z,9.746341
2022-10-26T10:31:27.033Z,9.745910
2022-10-26T10:32:27.022Z,9.745611
2022-10-26T10:33:27.044Z,9.746137
2022-10-26T10:34:27.006Z,9.745691
2022-10-26T10:35:26.998Z,9.745603
2022-10-26T10:36:26.993Z,9.745620
2022-10-26T10:37:26.982Z,9.745848
2022-10-26T10:38:26.999Z,9.745841
2022-10-26T10:39:26.977Z,9.745654
2022-10-26T10:40:26.959Z,9.745456
2022-10-26T10:41:26.952Z,9.745467
2022-10-26T10:42:26.952Z,9.745280
2022-10-26T10:43:26.963Z,9.745669
2022-10-26T10:44:26.929Z,9.745954
2022-10-26T10:45:26.922Z,9.745494
2022-10-26T10:46:26.915Z,9.745548
2022-10-26T10:47:26.966Z,9.745697
2022-10-26T10:48:26.926Z,9.745563
2022-10-26T10:49:26.898Z,9.746117
2022-10-26T10:50:26.885Z,9.746547
2022-10-26T10:51:26.897Z,9.745776
2022-10-26T10:52:26.896Z,9.745727
2022-10-26T10:53:26.887Z,9.745714
2022-10-26T10:54:26.858Z,9.745752
2022-10-26T10:55:26.842Z,9.745499
2022-10-26T10:56:27.839Z,9.745936
2022-10-26T10:57:26.829Z,9.745933
2022-10-26T10:58:26.852Z,9.745634
2022-10-26T10:59:26.820Z,9.745780
2022-10-26T11:00:26.807Z,9.745630
2022-10-26T11:01:26.943Z,9.745645
2022-10-26T11:02:26.918Z,9.745777
2022-10-26T11:03:27.813Z,9.745862
2022-10-26T11:04:26.782Z,9.746263
2022-10-26T11:05:27.695Z,9.745413
2022-10-26T11:06:26.774Z,9.745263
2022-10-26T11:07:26.757Z,9.745313
2022-10-26T11:08:26.775Z,9.745619
2022-10-26T11:09:26.736Z,9.745894
2022-10-26T11:10:26.732Z,9.745693
2022-10-26T11:11:26.772Z,9.745861
2022-10-26T11:12:26.776Z,9.745769
2022-10-26T11:13:26.709Z,9.745612
2022-10-26T11:14:26.726Z,9.745808
2022-10-26T11:15:26.692Z,9.745865
2022-10-26T11:16:26.682Z,9.745760
2022-10-26T11:17:26.677Z,9.745772
2022-10-26T11:18:26.675Z,9.745854
2022-10-26T11:19:26.693Z,9.745481
2022-10-26T11:20:26.653Z,9.745325
2022-10-26T11:21:26.647Z,9.745560
2022-10-26T11:22:26.634Z,9.745912
2022-10-26T11:23:26.632Z,9.746217
2022-10-26T11:24:26.653Z,9.745972
2022-10-26T11:25:26.612Z,9.745845
2022-10-26T11:26:26.628Z,9.746024
2022-10-26T11:27:26.602Z,9.745837
2022-10-26T11:28:26.601Z,9.746228
2022-10-26T11:29:26.624Z,9.746462
2022-10-26T11:30:26.580Z,9.746415
2022-10-26T11:31:26.580Z,9.746117
2022-10-26T11:32:26.561Z,9.746224
2022-10-26T11:33:26.569Z,9.745831
2022-10-26T11:34:26.582Z,9.745814
2022-10-26T11:35:26.541Z,9.745886
2022-10-26T11:36:26.526Z,9.746054
2022-10-26T11:37:26.521Z,9.746068
2022-10-26T11:38:38.909Z,9.746563
2022-10-26T11:39:28.534Z,9.746247
2022-10-26T11:40:26.508Z,9.746508
2022-10-26T11:41:26.487Z,9.746527
2022-10-26T11:42:26.479Z,9.746527
2022-10-26T11:43:26.471Z,9.746527
2022-10-26T11:44:26.496Z,9.746527
2022-10-26T11:45:26.456Z,9.746527
2022-10-26T11:46:27.456Z,9.746527
2022-10-26T11:47:26.441Z,9.746527
2022-10-26T11:48:26.437Z,9.746527